Terminal Aerodrome Forecast
Issued by NWS

Home | Current Version | Previous Version | Text Only | Print | Product List | Glossary On
Versions: 1 2 3 4 5 6 7 8 9 10 11 12 13 14
000
FTUS41 KLWX 221700
TAFMTN
TAF
KMTN 221737Z 2218/2318 14007KT P6SM BKN040
     FM222000 17009KT P6SM SCT090
     FM230300 19005KT P6SM SCT250
     FM230900 VRB03KT 5SM BR SCT030
     FM231300 20009KT P6SM SCT250=

USA.gov is the U.S. government's official web portal to all federal, state and local government web resources and services.